Olympic National Park, WA

5:22 PM PDT on September 27, 2016 (GMT -0700)
Lake Dawn | | Change Station

Elev 1864 ft 48.04 °N, 123.43 °W | Updated 7 minutes ago

Clear
Clear
54.1 °F
Feels Like 54.1 °F
N
0.0
Wind Variable Wind from SW
Gusts 0.7 mph

Today
High -- | Low -- °F
--% Chance of Precip.
Yesterday
High -- | Low -- °F
Precip. -- in
Pressure 30.19 in
Visibility 10.0 miles
Clouds Clear
Dew Point 39 °F
Humidity 56%
Rainfall 0.00 in
Snow Depth Not available.
7:08 AM 7:00 PM
Waning Crescent, 9% visible
METAR KCLM 272353Z AUTO VRB06KT 10SM CLR 18/05 A3019 RMK AO2 SLP223 T01780050 10178 20128 58009
Pressure 30.19 in
Visibility 10.0 miles
Clouds Clear
Dew Point 39 °F
Humidity 56%
Rainfall 0.00 in
Snow Depth Not available.
7:08 AM 7:00 PM
Waning Crescent, 9% visible
METAR KCLM 272353Z AUTO VRB06KT 10SM CLR 18/05 A3019 RMK AO2 SLP223 T01780050 10178 20128 58009

10-Day Weather Forecast

Almanac

Astronomy

Sep. 27, 2016 Rise Set
Actual Time
Civil Twilight
Nautical Twilight
Astronomical Twilight
Moon
Length of Visible Light
Length of Day
Tomorrow will be .
, % of the Moon is Illuminated

Today's Extremes

State Highs State Lows

Community

WunderPhotos

Upload Photos

1,942,179 photos uploaded!

WunderBlog® & News

Nearby

Air Quality

  Air Quality AQ Index Pollutant
Not available.

Snow Depth

Station Depth Elevation

Earthquake Activity

City Distance Mag. Time & Date
Minimum magnitude displayed is 2.5.

Coastal Water Temperatures

Place Temperature

Stations

Nearby Weather Stations

Station Location Temp. Windchill Dew Point Humidity Wind Precip. Elev Updated Type
                   

Watches & Warnings

There are currently no watches in effect.